createdAt,value
2022-09-01T00:00:18.046Z,0.33
2022-09-01T00:01:20.712Z,1.00
2022-09-01T00:02:23.435Z,0.57
2022-09-01T00:03:26.718Z,0.33
2022-09-01T00:04:29.483Z,1.00
2022-09-01T00:05:32.134Z,0.83
2022-09-01T00:06:34.722Z,1.17
2022-09-01T00:07:37.412Z,1.67
2022-09-01T00:08:40.039Z,0.83
2022-09-01T00:09:42.714Z,1.00
2022-09-01T00:10:45.503Z,1.00
2022-09-01T00:11:50.699Z,1.00
2022-09-01T00:12:51.833Z,1.00
2022-09-01T00:13:54.525Z,1.00
2022-09-01T00:14:57.182Z,1.83
2022-09-01T00:15:59.958Z,3.00
2022-09-01T00:17:02.613Z,3.67
2022-09-01T00:18:05.591Z,5.33
2022-09-01T00:19:08.543Z,5.33
2022-09-01T00:20:11.584Z,5.43
2022-09-01T00:21:14.442Z,5.00
2022-09-01T00:22:17.329Z,4.67
2022-09-01T00:23:19.970Z,4.33
2022-09-01T00:24:22.552Z,5.00
2022-09-01T00:25:25.224Z,5.00
2022-09-01T00:26:28.186Z,5.00
2022-09-01T00:27:31.209Z,4.67
2022-09-01T00:28:35.868Z,4.00
2022-09-01T00:29:38.776Z,4.00
2022-09-01T00:30:42.619Z,3.75
2022-09-01T00:31:45.556Z,4.67
2022-09-01T00:32:48.269Z,5.14
2022-09-01T00:33:51.232Z,3.67
2022-09-01T00:34:53.869Z,2.67
2022-09-01T00:35:56.571Z,2.50
2022-09-01T00:36:59.251Z,3.83
2022-09-01T00:38:01.956Z,3.00
2022-09-01T00:39:04.947Z,3.00
2022-09-01T00:40:07.943Z,2.67
2022-09-01T00:41:10.970Z,1.57
2022-09-01T00:42:13.902Z,1.00
2022-09-01T00:43:16.763Z,1.00
2022-09-01T00:44:19.887Z,1.00
2022-09-01T00:45:22.861Z,1.00
2022-09-01T00:46:29.093Z,1.00
2022-09-01T00:47:30.187Z,1.00
2022-09-01T00:48:33.136Z,1.00
2022-09-01T00:49:36.326Z,1.29
2022-09-01T00:50:39.211Z,1.00
2022-09-01T00:51:42.099Z,1.29
2022-09-01T00:52:44.761Z,1.50
2022-09-01T00:53:47.603Z,2.00
2022-09-01T00:54:50.210Z,2.00
2022-09-01T00:55:53.071Z,1.67
2022-09-01T00:56:57.699Z,1.43
2022-09-01T00:57:59.638Z,1.50
2022-09-01T00:59:02.252Z,2.00
2022-09-01T01:00:05.178Z,1.17
2022-09-01T01:01:08.172Z,1.43
2022-09-01T01:02:11.404Z,1.14
2022-09-01T01:03:14.363Z,0.43
2022-09-01T01:04:17.263Z,1.00
2022-09-01T01:05:20.502Z,1.00
2022-09-01T01:06:23.465Z,1.00
2022-09-01T01:07:26.778Z,1.14
2022-09-01T01:08:29.683Z,1.33
2022-09-01T01:09:32.551Z,0.17
2022-09-01T01:10:36.574Z,0.29
2022-09-01T01:11:39.292Z,1.00
2022-09-01T01:12:41.917Z,1.00
2022-09-01T01:13:46.216Z,0.33
2022-09-01T01:14:48.417Z,1.00
2022-09-01T01:15:51.365Z,0.67
2022-09-01T01:16:54.114Z,0.67
2022-09-01T01:17:56.849Z,0.57
2022-09-01T01:18:59.570Z,0.67
2022-09-01T01:20:02.364Z,1.00
2022-09-01T01:21:05.085Z,0.67
2022-09-01T01:22:07.746Z,0.33
2022-09-01T01:23:10.436Z,0.00
2022-09-01T01:24:13.140Z,0.17
2022-09-01T01:25:15.801Z,0.83
2022-09-01T01:26:18.715Z,1.00
2022-09-01T01:27:21.365Z,1.00
2022-09-01T01:28:23.961Z,1.00
2022-09-01T01:29:26.579Z,0.67
2022-09-01T01:30:29.226Z,0.33
2022-09-01T01:31:32.119Z,1.00
2022-09-01T01:32:34.740Z,1.00
2022-09-01T01:33:42.865Z,0.14
2022-09-01T01:34:47.519Z,0.00
2022-09-01T01:35:49.725Z,0.00
2022-09-01T01:36:53.581Z,0.00
2022-09-01T01:37:58.307Z,0.00
2022-09-01T01:39:02.011Z,0.00
2022-09-01T01:40:04.659Z,0.00
2022-09-01T01:41:10.828Z,0.00
2022-09-01T01:42:13.586Z,0.00
2022-09-01T01:43:19.243Z,0.00
2022-09-01T01:44:23.162Z,0.00
2022-09-01T01:45:25.968Z,0.00
2022-09-01T01:46:29.878Z,0.50
2022-09-01T01:47:32.620Z,0.00
2022-09-01T01:48:35.274Z,0.00
2022-09-01T01:49:37.933Z,0.00
2022-09-01T01:50:40.649Z,0.67
2022-09-01T01:51:43.368Z,0.00
2022-09-01T01:52:45.979Z,0.00
2022-09-01T01:53:48.579Z,0.00
2022-09-01T01:54:51.234Z,0.00
2022-09-01T01:55:53.830Z,0.00
2022-09-01T01:56:56.466Z,0.00
2022-09-01T01:57:59.181Z,0.00
2022-09-01T01:59:01.872Z,0.00
2022-09-01T02:00:04.440Z,0.00
2022-09-01T02:01:07.064Z,0.00
2022-09-01T02:02:09.649Z,0.00
2022-09-01T02:03:12.527Z,0.00
2022-09-01T02:04:15.328Z,0.00
2022-09-01T02:05:18.202Z,0.00
2022-09-01T02:06:20.938Z,0.00
2022-09-01T02:07:23.744Z,0.43
2022-09-01T02:08:26.938Z,0.67
2022-09-01T02:09:29.892Z,0.00
2022-09-01T02:10:32.584Z,0.43
2022-09-01T02:11:35.546Z,1.00
2022-09-01T02:12:38.386Z,0.67
2022-09-01T02:13:41.582Z,0.43
2022-09-01T02:14:44.382Z,0.00
2022-09-01T02:15:47.226Z,0.00
2022-09-01T02:16:49.844Z,0.00
2022-09-01T02:17:52.787Z,0.00
2022-09-01T02:18:55.789Z,0.00
2022-09-01T02:19:58.470Z,0.00
2022-09-01T02:21:01.192Z,0.00
2022-09-01T02:22:03.930Z,0.33
2022-09-01T02:23:06.672Z,0.43
2022-09-01T02:24:09.690Z,0.00
2022-09-01T02:25:12.576Z,0.00
2022-09-01T02:26:17.006Z,0.17
2022-09-01T02:27:19.588Z,0.00
2022-09-01T02:28:22.530Z,0.00
2022-09-01T02:29:25.477Z,0.43
2022-09-01T02:30:28.474Z,0.67
2022-09-01T02:31:31.112Z,0.00
2022-09-01T02:32:34.032Z,0.67
2022-09-01T02:33:36.823Z,0.67
2022-09-01T02:34:40.094Z,0.00
2022-09-01T02:35:42.773Z,0.00
2022-09-01T02:36:45.712Z,0.00
2022-09-01T02:37:48.600Z,0.00
2022-09-01T02:38:53.259Z,0.00
2022-09-01T02:39:55.392Z,0.00
2022-09-01T02:40:58.082Z,0.00
2022-09-01T02:42:00.737Z,0.00
2022-09-01T02:43:03.406Z,0.00
2022-09-01T02:44:05.976Z,0.00
2022-09-01T02:45:08.979Z,0.00
2022-09-01T02:46:11.987Z,0.00
2022-09-01T02:47:14.850Z,0.00
2022-09-01T02:48:17.779Z,0.00
2022-09-01T02:49:21.947Z,0.00
2022-09-01T02:50:24.889Z,0.00
2022-09-01T02:51:27.831Z,0.33
2022-09-01T02:52:30.711Z,0.17
2022-09-01T02:53:33.823Z,0.00
2022-09-01T02:54:36.489Z,0.00
2022-09-01T02:55:39.190Z,0.33
2022-09-01T02:56:42.043Z,1.00
2022-09-01T02:57:44.953Z,1.00
2022-09-01T02:58:48.500Z,0.57
2022-09-01T02:59:51.441Z,1.00
2022-09-01T03:00:54.165Z,0.67
2022-09-01T03:01:57.046Z,1.00
2022-09-01T03:02:59.713Z,1.00
2022-09-01T03:04:02.416Z,0.43
2022-09-01T03:05:05.162Z,0.33
2022-09-01T03:06:07.910Z,0.67
2022-09-01T03:07:10.781Z,1.00
2022-09-01T03:08:13.631Z,1.33
2022-09-01T03:09:16.571Z,2.00
2022-09-01T03:10:19.428Z,1.14
2022-09-01T03:11:23.803Z,0.50
2022-09-01T03:12:26.483Z,1.00
2022-09-01T03:13:29.363Z,0.83
2022-09-01T03:14:32.033Z,0.83
2022-09-01T03:15:34.964Z,1.00
2022-09-01T03:16:38.100Z,1.00
2022-09-01T03:17:40.970Z,1.00
2022-09-01T03:18:43.895Z,1.00
2022-09-01T03:19:46.713Z,0.67
2022-09-01T03:20:49.284Z,1.33
2022-09-01T03:21:52.250Z,1.17
2022-09-01T03:22:54.871Z,1.00
2022-09-01T03:23:57.727Z,1.00
2022-09-01T03:25:00.447Z,1.00
2022-09-01T03:26:03.145Z,1.00
2022-09-01T03:27:05.806Z,1.33
2022-09-01T03:28:08.457Z,1.50
2022-09-01T03:29:11.365Z,1.00
2022-09-01T03:30:14.248Z,1.00
2022-09-01T03:31:17.233Z,0.67
2022-09-01T03:32:20.213Z,0.86
2022-09-01T03:33:23.163Z,0.67
2022-09-01T03:34:25.863Z,1.67
2022-09-01T03:35:28.561Z,0.67
2022-09-01T03:36:31.238Z,0.83
2022-09-01T03:37:34.183Z,0.50
2022-09-01T03:38:36.887Z,0.86
2022-09-01T03:39:39.509Z,1.00
2022-09-01T03:40:42.190Z,1.00
2022-09-01T03:41:44.856Z,0.33
2022-09-01T03:42:47.788Z,1.00
2022-09-01T03:43:50.412Z,1.00
2022-09-01T03:44:52.990Z,1.00
2022-09-01T03:45:55.678Z,1.00
2022-09-01T03:46:58.290Z,1.33
2022-09-01T03:48:01.086Z,2.00
2022-09-01T03:49:03.646Z,1.33
2022-09-01T03:50:06.176Z,1.50
2022-09-01T03:51:08.733Z,0.67
2022-09-01T03:52:11.243Z,1.80
2022-09-01T03:53:14.173Z,1.00
2022-09-01T03:54:16.852Z,1.00
2022-09-01T03:55:19.568Z,1.00
2022-09-01T03:56:22.286Z,1.00
2022-09-01T03:57:24.959Z,0.67
2022-09-01T03:58:30.808Z,1.00
2022-09-01T03:59:33.860Z,1.50
2022-09-01T04:00:36.464Z,0.67
2022-09-01T04:01:40.032Z,0.43
2022-09-01T04:02:42.774Z,1.00
2022-09-01T04:03:46.682Z,0.88
2022-09-01T04:04:49.221Z,0.17
2022-09-01T04:05:52.740Z,0.00
2022-09-01T04:06:55.308Z,0.43
2022-09-01T04:07:57.890Z,0.83
2022-09-01T04:09:00.538Z,0.50
2022-09-01T04:10:03.071Z,0.00
2022-09-01T04:11:05.630Z,0.33
2022-09-01T04:12:08.204Z,0.83
2022-09-01T04:13:10.888Z,1.00
2022-09-01T04:14:15.040Z,0.88
2022-09-01T04:15:17.904Z,0.83
2022-09-01T04:16:21.082Z,0.57
2022-09-01T04:17:26.431Z,0.57
2022-09-01T04:18:28.054Z,0.88
2022-09-01T04:19:30.959Z,1.00
2022-09-01T04:20:33.808Z,0.83
2022-09-01T04:21:36.831Z,1.00
2022-09-01T04:22:39.794Z,0.83
2022-09-01T04:23:43.947Z,0.43
2022-09-01T04:24:46.929Z,0.50
2022-09-01T04:25:49.851Z,0.86
2022-09-01T04:26:52.438Z,1.14
2022-09-01T04:27:55.439Z,1.00
2022-09-01T04:28:58.029Z,0.43
2022-09-01T04:30:01.023Z,0.17
2022-09-01T04:31:03.635Z,0.43
2022-09-01T04:32:06.361Z,0.67
2022-09-01T04:33:09.063Z,0.67
2022-09-01T04:34:11.939Z,0.33
2022-09-01T04:35:15.172Z,0.67
2022-09-01T04:36:18.073Z,1.00
2022-09-01T04:37:21.006Z,0.57
2022-09-01T04:38:23.912Z,0.00
2022-09-01T04:39:26.809Z,1.00
2022-09-01T04:40:30.120Z,1.00
2022-09-01T04:41:33.046Z,1.00
2022-09-01T04:42:35.981Z,0.67
2022-09-01T04:43:38.890Z,0.43
2022-09-01T04:44:41.835Z,0.57
2022-09-01T04:45:44.877Z,0.00
2022-09-01T04:46:47.922Z,0.00
2022-09-01T04:47:50.842Z,0.33
2022-09-01T04:48:53.431Z,1.00
2022-09-01T04:49:56.367Z,0.67
2022-09-01T04:50:59.008Z,0.00
2022-09-01T04:52:01.681Z,0.50
2022-09-01T04:53:04.337Z,1.00
2022-09-01T04:54:07.026Z,0.83
2022-09-01T04:55:09.752Z,1.00
2022-09-01T04:56:12.693Z,1.00
2022-09-01T04:57:15.566Z,0.33
2022-09-01T04:58:18.219Z,0.67
2022-09-01T04:59:21.662Z,0.33
2022-09-01T05:00:24.766Z,1.00
2022-09-01T05:01:27.585Z,0.67
2022-09-01T05:02:30.477Z,0.43
2022-09-01T05:03:33.196Z,1.00
2022-09-01T05:04:35.822Z,0.57
2022-09-01T05:05:38.406Z,0.00
2022-09-01T05:06:40.949Z,0.67
2022-09-01T05:07:43.748Z,0.00
2022-09-01T05:08:46.640Z,1.00
2022-09-01T05:09:49.550Z,0.67
2022-09-01T05:10:52.112Z,0.00
2022-09-01T05:11:55.033Z,0.33
2022-09-01T05:12:57.638Z,0.67
2022-09-01T05:14:00.273Z,0.00
2022-09-01T05:15:02.919Z,0.33
2022-09-01T05:16:05.647Z,0.33
2022-09-01T05:17:08.371Z,0.67
2022-09-01T05:18:14.453Z,0.43
2022-09-01T05:19:17.313Z,0.37
2022-09-01T05:20:20.375Z,0.67
2022-09-01T05:21:23.321Z,0.00
2022-09-01T05:22:26.177Z,0.00
2022-09-01T05:23:29.068Z,0.00
2022-09-01T05:24:31.985Z,0.50
2022-09-01T05:25:34.877Z,0.67
2022-09-01T05:26:37.600Z,0.33
2022-09-01T05:27:40.494Z,0.00
2022-09-01T05:28:43.064Z,0.00
2022-09-01T05:29:45.769Z,0.33
2022-09-01T05:30:48.419Z,1.00
2022-09-01T05:31:51.132Z,0.00
2022-09-01T05:32:54.000Z,0.00
2022-09-01T05:33:56.500Z,0.00
2022-09-01T05:34:59.128Z,0.00
2022-09-01T05:36:01.749Z,0.00
2022-09-01T05:37:04.437Z,0.00
2022-09-01T05:38:07.428Z,0.00
2022-09-01T05:39:10.097Z,0.00
2022-09-01T05:40:12.866Z,0.83
2022-09-01T05:41:15.549Z,0.33
2022-09-01T05:42:18.198Z,1.00
2022-09-01T05:43:21.167Z,0.67
2022-09-01T05:44:23.819Z,0.00
2022-09-01T05:45:26.493Z,0.00
2022-09-01T05:46:29.211Z,0.00
2022-09-01T05:47:31.959Z,0.43
2022-09-01T05:48:34.693Z,0.33
2022-09-01T05:49:37.295Z,0.67
2022-09-01T05:50:40.103Z,0.00
2022-09-01T05:51:46.470Z,0.33
2022-09-01T05:52:46.647Z,0.62
2022-09-01T05:53:50.470Z,1.00
2022-09-01T05:54:54.368Z,0.00
2022-09-01T05:55:57.536Z,0.00
2022-09-01T05:57:17.381Z,0.00
2022-09-01T05:58:04.011Z,0.00
2022-09-01T06:00:10.612Z,0.50
2022-09-01T06:01:13.459Z,0.67
2022-09-01T06:02:16.470Z,0.43
2022-09-01T06:03:19.494Z,1.00
2022-09-01T06:04:22.708Z,0.67
2022-09-01T06:05:25.579Z,0.33
2022-09-01T06:06:28.405Z,0.57
2022-09-01T06:07:31.046Z,0.00
2022-09-01T06:08:33.752Z,0.33
2022-09-01T06:09:36.445Z,1.00
2022-09-01T06:10:39.167Z,0.67
2022-09-01T06:11:41.891Z,0.00
2022-09-01T06:12:44.543Z,0.00
2022-09-01T06:13:47.184Z,0.00
2022-09-01T06:14:49.752Z,0.00
2022-09-01T06:15:52.372Z,0.00
2022-09-01T06:16:55.027Z,0.43
2022-09-01T06:17:57.771Z,1.00
2022-09-01T06:19:00.269Z,1.00
2022-09-01T06:20:02.898Z,0.67
2022-09-01T06:21:05.505Z,0.00
2022-09-01T06:22:08.072Z,0.67
2022-09-01T06:23:10.665Z,0.00
2022-09-01T06:24:13.532Z,0.00
2022-09-01T06:25:16.423Z,0.29
2022-09-01T06:26:19.105Z,0.00
2022-09-01T06:27:22.847Z,0.33
2022-09-01T06:28:25.525Z,0.57
2022-09-01T06:29:28.254Z,0.00
2022-09-01T06:30:30.951Z,0.00
2022-09-01T06:31:33.677Z,0.33
2022-09-01T06:32:36.402Z,1.00
2022-09-01T06:33:39.051Z,0.67
2022-09-01T06:34:41.647Z,0.00
2022-09-01T06:35:44.689Z,0.00
2022-09-01T06:36:47.544Z,1.00
2022-09-01T06:37:50.217Z,0.67
2022-09-01T06:38:52.801Z,0.43
2022-09-01T06:39:55.708Z,0.33
2022-09-01T06:40:58.376Z,0.00
2022-09-01T06:42:01.237Z,0.00
2022-09-01T06:43:03.973Z,0.67
2022-09-01T06:44:08.902Z,0.67
2022-09-01T06:45:10.540Z,0.13
2022-09-01T06:46:13.787Z,1.00
2022-09-01T06:47:16.672Z,0.71
2022-09-01T06:48:19.641Z,1.00
2022-09-01T06:49:22.540Z,1.00
2022-09-01T06:51:29.603Z,0.50
2022-09-01T06:53:32.216Z,0.33
2022-09-01T06:53:37.026Z,0.50
2022-09-01T06:54:40.271Z,0.00
2022-09-01T06:55:43.201Z,0.67
2022-09-01T06:56:51.721Z,0.43
2022-09-01T06:58:06.540Z,1.00
2022-09-01T06:58:54.050Z,0.37
2022-09-01T06:59:57.171Z,0.00
2022-09-01T07:00:59.688Z,0.00
2022-09-01T07:02:04.697Z,0.33
2022-09-01T07:03:06.217Z,0.86
2022-09-01T07:04:12.925Z,0.43
2022-09-01T07:05:59.839Z,0.57
2022-09-01T07:08:25.191Z,1.00
2022-09-01T07:09:47.722Z,0.00
2022-09-01T07:10:31.751Z,0.43
2022-09-01T07:12:38.369Z,0.00
2022-09-01T07:14:15.362Z,0.43
2022-09-01T07:16:53.676Z,0.57
2022-09-01T07:17:56.599Z,0.43
2022-09-01T07:18:59.268Z,1.00
2022-09-01T07:21:35.852Z,0.57
2022-09-01T07:22:09.694Z,0.00
2022-09-01T07:23:13.827Z,0.00
2022-09-01T07:24:16.496Z,0.43
2022-09-01T07:25:19.256Z,0.83
2022-09-01T07:26:25.805Z,0.33
2022-09-01T07:27:26.024Z,1.00
2022-09-01T07:28:36.122Z,0.57
2022-09-01T07:29:34.311Z,0.43
2022-09-01T07:30:37.174Z,1.00
2022-09-01T07:32:47.567Z,1.00
2022-09-01T07:33:53.932Z,1.00
2022-09-01T07:34:52.877Z,1.00
2022-09-01T07:38:47.016Z,1.00
2022-09-01T07:38:48.100Z,0.57
2022-09-01T07:43:26.374Z,0.62
2022-09-01T07:44:28.581Z,1.00
2022-09-01T07:45:31.451Z,1.00
2022-09-01T07:46:37.555Z,1.00
2022-09-01T07:47:53.800Z,0.50
2022-09-01T07:50:25.204Z,1.00
2022-09-01T07:51:54.405Z,1.00
2022-09-01T07:52:56.992Z,1.00
2022-09-01T07:53:59.622Z,0.67
2022-09-01T07:55:02.279Z,0.33
2022-09-01T07:56:05.006Z,1.00
2022-09-01T07:57:07.671Z,1.00
2022-09-01T07:58:10.353Z,1.00
2022-09-01T07:59:15.241Z,1.00
2022-09-01T08:00:16.865Z,1.00
2022-09-01T08:01:19.666Z,0.67
2022-09-01T08:02:22.479Z,0.43
2022-09-01T08:03:25.214Z,1.00
2022-09-01T08:04:27.810Z,1.00
2022-09-01T08:05:30.304Z,1.00
2022-09-01T08:06:40.942Z,1.00
2022-09-01T08:07:51.627Z,1.00
2022-09-01T08:08:41.004Z,1.00
2022-09-01T08:09:44.604Z,1.00
2022-09-01T08:10:48.955Z,1.00
2022-09-01T08:12:01.806Z,1.00
2022-09-01T08:12:56.617Z,1.00
2022-09-01T08:13:59.398Z,1.00
2022-09-01T08:16:08.438Z,0.00
2022-09-01T08:17:18.276Z,0.50
2022-09-01T08:18:16.576Z,1.00
2022-09-01T08:19:19.259Z,1.00
2022-09-01T08:20:21.826Z,1.00
2022-09-01T08:21:24.516Z,1.00
2022-09-01T08:22:27.092Z,1.00
2022-09-01T08:23:29.821Z,1.00
2022-09-01T08:24:32.465Z,1.00
2022-09-01T08:25:35.132Z,1.00
2022-09-01T08:26:37.829Z,0.67
2022-09-01T08:27:40.449Z,0.43
2022-09-01T08:28:46.186Z,1.33
2022-09-01T08:29:47.123Z,1.25
2022-09-01T08:30:52.444Z,0.67
2022-09-01T08:31:54.013Z,0.50
2022-09-01T08:32:56.642Z,1.00
2022-09-01T08:33:59.492Z,1.00
2022-09-01T08:35:02.040Z,1.00
2022-09-01T08:36:04.648Z,1.00
2022-09-01T08:37:07.364Z,1.00
2022-09-01T08:38:10.081Z,1.00
2022-09-01T08:39:12.766Z,1.00
2022-09-01T08:40:15.739Z,1.00
2022-09-01T08:41:18.419Z,1.00
2022-09-01T08:42:21.390Z,0.67
2022-09-01T08:43:24.271Z,0.33
2022-09-01T08:44:27.241Z,1.00
2022-09-01T08:45:30.128Z,1.00
2022-09-01T08:46:32.863Z,1.00
2022-09-01T08:47:49.154Z,1.00
2022-09-01T08:49:43.638Z,1.00
2022-09-01T08:50:51.890Z,0.57
2022-09-01T08:51:50.817Z,0.43
2022-09-01T08:52:53.450Z,0.83
2022-09-01T08:53:56.288Z,0.67
2022-09-01T08:54:58.868Z,0.43
2022-09-01T08:56:01.706Z,1.00
2022-09-01T08:57:04.434Z,1.00
2022-09-01T08:58:07.946Z,0.67
2022-09-01T08:59:10.683Z,1.00
2022-09-01T09:00:13.656Z,1.00
2022-09-01T09:01:17.768Z,0.67
2022-09-01T09:02:20.543Z,0.50
2022-09-01T09:03:23.759Z,1.00
2022-09-01T09:04:26.438Z,1.00
2022-09-01T09:05:29.152Z,0.33
2022-09-01T09:06:31.997Z,1.00
2022-09-01T09:07:34.864Z,1.00
2022-09-01T09:08:37.848Z,1.00
2022-09-01T09:09:40.485Z,1.00
2022-09-01T09:10:43.159Z,0.67
2022-09-01T09:11:45.861Z,0.17
2022-09-01T09:12:49.494Z,0.33
2022-09-01T09:13:52.737Z,1.00
2022-09-01T09:14:55.330Z,1.00
2022-09-01T09:16:09.401Z,1.00
2022-09-01T09:17:01.623Z,1.00
2022-09-01T09:18:04.305Z,1.00
2022-09-01T09:19:08.344Z,1.00
2022-09-01T09:20:10.884Z,1.00
2022-09-01T09:21:13.412Z,1.00
2022-09-01T09:22:16.159Z,1.00
2022-09-01T09:23:19.117Z,1.00
2022-09-01T09:24:22.807Z,1.00
2022-09-01T09:25:25.821Z,1.00
2022-09-01T09:26:42.275Z,1.00
2022-09-01T09:27:32.857Z,1.43
2022-09-01T09:28:36.019Z,1.00
2022-09-01T09:29:39.286Z,0.71
2022-09-01T09:30:42.269Z,0.71
2022-09-01T09:31:45.902Z,1.33
2022-09-01T09:33:53.836Z,0.00
2022-09-01T09:34:56.729Z,0.00
2022-09-01T09:35:59.769Z,0.67
2022-09-01T09:37:02.406Z,1.17
2022-09-01T09:38:05.089Z,1.00
2022-09-01T09:39:07.704Z,1.00
2022-09-01T09:40:10.608Z,1.00
2022-09-01T09:41:17.793Z,0.29
2022-09-01T09:42:17.461Z,0.57
2022-09-01T09:43:20.531Z,1.00
2022-09-01T09:44:23.442Z,0.57
2022-09-01T09:45:26.113Z,0.33
2022-09-01T09:46:28.814Z,1.33
2022-09-01T09:47:43.170Z,1.00
2022-09-01T09:48:35.287Z,1.00
2022-09-01T09:49:44.279Z,1.00
2022-09-01T09:50:41.780Z,1.00
2022-09-01T09:51:44.438Z,1.33
2022-09-01T09:52:47.114Z,1.57
2022-09-01T09:53:50.808Z,1.00
2022-09-01T09:54:53.306Z,1.00
2022-09-01T09:55:56.454Z,1.00
2022-09-01T09:56:59.166Z,1.00
2022-09-01T09:58:02.089Z,1.00
2022-09-01T09:59:04.822Z,0.67
2022-09-01T10:00:07.476Z,0.33
2022-09-01T10:01:10.193Z,0.33
2022-09-01T10:02:12.831Z,1.00
2022-09-01T10:03:15.550Z,1.00
2022-09-01T10:04:18.350Z,1.00
2022-09-01T10:05:21.120Z,1.00
2022-09-01T10:06:24.683Z,1.00
2022-09-01T10:07:28.584Z,1.00
2022-09-01T10:08:31.166Z,1.00
2022-09-01T10:09:34.863Z,0.57
2022-09-01T10:10:37.551Z,1.00
2022-09-01T10:11:40.851Z,1.00
2022-09-01T10:12:44.775Z,1.00
2022-09-01T10:13:48.343Z,1.50
2022-09-01T10:14:53.389Z,1.57
2022-09-01T10:15:56.060Z,1.00
2022-09-01T10:16:58.977Z,1.00
2022-09-01T10:19:07.165Z,1.00
2022-09-01T10:20:11.387Z,0.50
2022-09-01T10:21:13.074Z,0.00
2022-09-01T10:22:15.606Z,0.33
2022-09-01T10:23:18.165Z,0.67
2022-09-01T10:24:25.722Z,0.33
2022-09-01T10:25:24.635Z,1.00
2022-09-01T10:26:27.300Z,1.00
2022-09-01T10:27:31.473Z,0.67
2022-09-01T10:28:33.907Z,0.88
2022-09-01T10:29:48.342Z,2.00
2022-09-01T10:30:49.953Z,0.50
2022-09-01T10:32:08.467Z,1.00
2022-09-01T10:33:01.558Z,1.00
2022-09-01T10:34:02.430Z,1.00
2022-09-01T10:35:06.026Z,0.75
2022-09-01T10:36:09.306Z,1.00
2022-09-01T10:37:15.937Z,1.00
2022-09-01T10:38:17.193Z,1.00
2022-09-01T10:39:22.190Z,1.25
2022-09-01T10:40:30.308Z,1.00
2022-09-01T10:41:31.361Z,1.00
2022-09-01T10:42:34.984Z,1.00
2022-09-01T10:43:38.538Z,1.00
2022-09-01T10:44:42.239Z,1.00
2022-09-01T10:45:47.767Z,1.00
2022-09-01T10:46:51.043Z,0.88
2022-09-01T10:47:54.854Z,1.00
2022-09-01T10:49:02.915Z,1.00
2022-09-01T10:50:07.680Z,1.50
2022-09-01T10:51:07.474Z,1.50
2022-09-01T10:52:13.953Z,1.00
2022-09-01T10:53:17.291Z,1.00
2022-09-01T10:54:19.677Z,1.00
2022-09-01T10:55:24.938Z,1.00
2022-09-01T10:56:35.491Z,1.00
2022-09-01T10:57:32.503Z,1.00
2022-09-01T10:59:44.285Z,1.00
2022-09-01T11:01:10.690Z,1.00
2022-09-01T11:01:49.620Z,1.00
2022-09-01T11:02:53.440Z,1.00
2022-09-01T11:03:57.030Z,1.00
2022-09-01T11:05:00.874Z,1.00
2022-09-01T11:06:18.961Z,1.00
2022-09-01T11:07:11.890Z,1.00
2022-09-01T11:08:15.872Z,1.00
2022-09-01T11:09:17.535Z,1.50
2022-09-01T11:10:36.110Z,1.57
2022-09-01T11:11:25.448Z,1.00
2022-09-01T11:12:28.848Z,1.43
2022-09-01T11:13:32.931Z,1.25
2022-09-01T11:14:36.108Z,1.00
2022-09-01T11:15:39.288Z,1.29
2022-09-01T11:16:50.102Z,1.86
2022-09-01T11:17:47.698Z,1.00
2022-09-01T11:18:51.393Z,1.50
2022-09-01T11:19:55.764Z,2.00
2022-09-01T11:20:58.885Z,1.57
2022-09-01T11:22:02.897Z,1.00
2022-09-01T11:23:06.581Z,1.00
2022-09-01T11:24:10.988Z,1.00
2022-09-01T11:25:14.273Z,1.43
2022-09-01T11:26:20.525Z,1.43
2022-09-01T11:27:22.248Z,1.87
2022-09-01T11:28:26.481Z,1.57
2022-09-01T11:29:29.764Z,1.00
2022-09-01T11:30:34.174Z,1.00
2022-09-01T11:31:37.520Z,1.00
2022-09-01T11:32:43.743Z,1.14
2022-09-01T11:33:45.954Z,1.37
2022-09-01T11:34:49.148Z,1.00
2022-09-01T11:35:53.065Z,1.00
2022-09-01T11:36:56.238Z,1.00
2022-09-01T11:37:59.824Z,1.00
2022-09-01T11:39:03.303Z,1.00
2022-09-01T11:40:06.637Z,1.00
2022-09-01T11:41:09.882Z,1.00
2022-09-01T11:42:13.168Z,1.00
2022-09-01T11:43:17.929Z,1.00
2022-09-01T11:44:22.830Z,1.25
2022-09-01T11:45:26.402Z,1.12
2022-09-01T11:46:29.890Z,1.57
2022-09-01T11:47:33.479Z,1.00
2022-09-01T11:48:36.970Z,1.43
2022-09-01T11:49:40.457Z,1.57
2022-09-01T11:50:43.948Z,1.29
2022-09-01T11:51:47.115Z,1.29
2022-09-01T11:52:50.519Z,1.43
2022-09-01T11:53:54.008Z,1.00
2022-09-01T11:54:57.403Z,1.00
2022-09-01T11:56:00.575Z,1.00
2022-09-01T11:57:03.959Z,1.00
2022-09-01T11:58:07.063Z,1.43
2022-09-01T11:59:10.325Z,1.14
2022-09-01T12:00:13.916Z,1.00
2022-09-01T12:01:17.096Z,1.00
2022-09-01T12:02:20.615Z,0.57
2022-09-01T12:03:24.114Z,0.57
2022-09-01T12:04:27.542Z,1.00
2022-09-01T12:05:30.951Z,1.00
2022-09-01T12:06:34.116Z,1.00
2022-09-01T12:07:37.193Z,1.00
2022-09-01T12:08:40.699Z,1.00
2022-09-01T12:09:44.218Z,1.00
2022-09-01T12:10:47.783Z,1.00
2022-09-01T12:11:51.374Z,1.00
2022-09-01T12:12:54.621Z,1.00
2022-09-01T12:13:58.045Z,1.00
2022-09-01T12:15:08.017Z,1.14
2022-09-01T12:16:21.209Z,1.25
2022-09-01T12:17:10.678Z,1.00
2022-09-01T12:18:13.948Z,0.57
2022-09-01T12:19:17.433Z,0.43
2022-09-01T12:20:23.307Z,1.00
2022-09-01T12:21:25.832Z,1.00
2022-09-01T12:22:29.233Z,1.00
2022-09-01T12:23:32.721Z,1.43
2022-09-01T12:24:36.321Z,1.57
2022-09-01T12:25:42.669Z,1.00
2022-09-01T12:26:46.429Z,0.50
2022-09-01T12:27:49.544Z,1.00
2022-09-01T12:28:53.134Z,1.00
2022-09-01T12:29:57.447Z,0.86
2022-09-01T12:31:00.486Z,0.50
2022-09-01T12:32:04.144Z,1.33
2022-09-01T12:34:12.029Z,1.25
2022-09-01T12:35:15.672Z,1.00
2022-09-01T12:36:18.846Z,1.00
2022-09-01T12:37:22.381Z,1.33
2022-09-01T12:38:25.669Z,1.00
2022-09-01T12:39:28.851Z,1.29
2022-09-01T12:40:32.192Z,1.00
2022-09-01T12:41:35.442Z,1.43
2022-09-01T12:42:41.356Z,2.00
2022-09-01T12:43:43.008Z,2.00
2022-09-01T12:44:46.189Z,1.86
2022-09-01T12:45:49.715Z,2.00
2022-09-01T12:46:53.165Z,1.57
2022-09-01T12:47:56.859Z,1.00
2022-09-01T12:49:00.145Z,1.25
2022-09-01T12:50:03.692Z,1.00
2022-09-01T12:51:09.169Z,1.43
2022-09-01T12:52:12.070Z,2.00
2022-09-01T12:53:15.708Z,2.00
2022-09-01T12:54:21.233Z,1.14
2022-09-01T12:56:28.007Z,1.50
2022-09-01T12:57:31.333Z,1.57
2022-09-01T12:58:34.718Z,1.00
2022-09-01T12:59:37.900Z,1.43
2022-09-01T13:00:41.214Z,1.57
2022-09-01T13:01:44.580Z,1.00
2022-09-01T13:02:47.985Z,1.00
2022-09-01T13:03:51.453Z,1.14
2022-09-01T13:04:54.729Z,1.57
2022-09-01T13:05:57.890Z,1.43
2022-09-01T13:07:01.201Z,1.00
2022-09-01T13:08:04.379Z,1.00
2022-09-01T13:09:07.768Z,1.00
2022-09-01T13:10:11.048Z,1.00
2022-09-01T13:11:14.254Z,1.00
2022-09-01T13:12:17.430Z,1.00
2022-09-01T13:13:20.737Z,1.00
2022-09-01T13:14:23.978Z,1.29
2022-09-01T13:15:27.160Z,1.14
2022-09-01T13:16:30.483Z,2.00
2022-09-01T13:17:33.630Z,2.00
2022-09-01T13:19:41.632Z,1.50
2022-09-01T13:20:44.917Z,2.00
2022-09-01T13:21:48.059Z,1.14
2022-09-01T13:22:51.687Z,1.14
2022-09-01T13:23:54.867Z,1.43
2022-09-01T13:24:58.326Z,2.00
2022-09-01T13:26:01.443Z,1.71
2022-09-01T13:28:09.026Z,1.00
2022-09-01T13:29:12.319Z,1.33
2022-09-01T13:30:15.910Z,2.00
2022-09-01T13:31:35.518Z,2.00
2022-09-01T13:32:23.654Z,1.50
2022-09-01T13:33:27.698Z,2.00
2022-09-01T13:34:31.891Z,2.00
2022-09-01T13:35:35.663Z,2.00
2022-09-01T13:36:49.400Z,2.25
2022-09-01T13:37:43.200Z,2.00
2022-09-01T13:38:47.149Z,2.37
2022-09-01T13:39:51.612Z,2.75
2022-09-01T13:40:54.883Z,2.00
2022-09-01T13:41:58.082Z,2.43
2022-09-01T13:43:01.106Z,2.29
2022-09-01T13:44:04.253Z,2.00
2022-09-01T13:45:07.551Z,2.57
2022-09-01T13:46:11.332Z,2.57
2022-09-01T13:47:30.272Z,2.00
2022-09-01T13:48:18.905Z,2.00
2022-09-01T13:50:27.416Z,2.00
2022-09-01T13:51:31.084Z,2.00
2022-09-01T13:52:34.298Z,2.00
2022-09-01T13:53:37.589Z,2.00
2022-09-01T13:54:40.760Z,2.43
2022-09-01T13:55:44.132Z,3.00
2022-09-01T13:56:47.533Z,2.14
2022-09-01T13:57:53.870Z,2.29
2022-09-01T13:58:55.125Z,2.37
2022-09-01T13:59:58.417Z,2.00
2022-09-01T14:01:01.875Z,2.00
2022-09-01T14:02:05.288Z,2.00
2022-09-01T14:03:08.421Z,2.00
2022-09-01T14:04:11.450Z,2.00
2022-09-01T14:05:14.629Z,2.00
2022-09-01T14:06:17.809Z,2.00
2022-09-01T14:07:21.301Z,2.00
2022-09-01T14:08:24.689Z,2.00
2022-09-01T14:09:27.864Z,2.00
2022-09-01T14:10:31.264Z,2.00
2022-09-01T14:11:34.640Z,2.86
2022-09-01T14:12:38.345Z,2.14
2022-09-01T14:13:41.825Z,2.00
2022-09-01T14:15:49.824Z,2.37
2022-09-01T14:16:52.968Z,2.00
2022-09-01T14:17:56.551Z,2.00
2022-09-01T14:18:59.539Z,2.43
2022-09-01T14:20:02.869Z,3.00
2022-09-01T14:21:06.015Z,2.43
2022-09-01T14:22:09.096Z,3.00
2022-09-01T14:23:12.469Z,2.67
2022-09-01T14:24:15.589Z,2.00
2022-09-01T14:25:18.970Z,2.57
2022-09-01T14:26:22.461Z,2.00
2022-09-01T14:27:26.976Z,2.25
2022-09-01T14:28:30.665Z,2.43
2022-09-01T14:29:33.962Z,2.86